Terminal Aerodrome Forecast
Issued by NWS Upton, NY

Home | Current Version | Previous Version | Text Only | Print | Product List | Glossary On
Versions: 1 2 3 4 5 6 7 8 9 10 11 12 13 14 15 16 17 18 19 20 21 22 23 24 25 26 27 28 29 30 31 32 33 34 35 36 37 38 39
007
FTUS41 KOKX 312134 AAC
TAFJFK
TAF AMD
KJFK 312134Z 3122/0124 18009KT P6SM FEW015 SCT050
     FM010000 19007KT P6SM FEW080
     FM010200 VRB04KT P6SM FEW080
     FM010600 02005KT P6SM SCT020 BKN080
     FM010900 04006KT P6SM SCT020 BKN080
     FM011600 16008KT P6SM BKN080=

USA.gov is the U.S. government's official web portal to all federal, state and local government web resources and services.